Pahala, HI (96777)

11:13 AM HST on August 23, 2016 (GMT -1000)
Discovery Harbour - South | | Change Station
Active Advisory: Flash Flood Watch Active Notice: Record Report

Elev 1047 ft 19.03 °N, 155.63 °W | Updated 23 seconds ago

Light Rain
Light Rain Mist
80.2 °F
Feels Like 85 °F
N
8.9
Wind Variable Wind from NE
Gusts 20.2 mph

Today
High -- | Low -- °F
--% Chance of Precip.
Yesterday
High -- | Low -- °F
Precip. -- in
Pressure 29.95 in
Visibility 2.0 miles
Clouds Mostly Cloudy 1200 ft
Mostly Cloudy 2300 ft
Overcast 3000 ft
Heat Index 85 °F
Dew Point 75 °F
Humidity 85%
Rainfall 3.24 in
Snow Depth Not available.
6:05 AM 6:43 PM
Waning Gibbous, 64% visible
SPECI PHTO 232100Z 00000KT 2SM -RA BR BKN012 BKN023 OVC030 25/24 A2995 RMK AO2 P0000 T02500239
Pressure 29.95 in
Visibility 2.0 miles
Clouds Mostly Cloudy 1200 ft
Mostly Cloudy 2300 ft
Overcast 3000 ft
Heat Index 85 °F
Dew Point 75 °F
Humidity 85%
Rainfall 3.24 in
Snow Depth Not available.
6:05 AM 6:43 PM
Waning Gibbous, 64% visible
SPECI PHTO 232100Z 00000KT 2SM -RA BR BKN012 BKN023 OVC030 25/24 A2995 RMK AO2 P0000 T02500239

10-Day Weather Forecast

Almanac

Astronomy

Aug. 23, 2016 Rise Set
Actual Time
Civil Twilight
Nautical Twilight
Astronomical Twilight
Moon
Length of Visible Light
Length of Day
Tomorrow will be .
, % of the Moon is Illuminated

Today's Extremes

State Highs State Lows

Community

WunderPhotos

Upload Photos

1,934,456 photos uploaded!

WunderBlog® & News

Nearby

Air Quality

  Air Quality AQ Index Pollutant
Not available.

Snow Depth

Station Depth Elevation

Earthquake Activity

City Distance Mag. Time & Date
Minimum magnitude displayed is 2.5.

Coastal Water Temperatures

Place Temperature

Stations

Nearby Weather Stations

Station Location Temp. Windchill Dew Point Humidity Wind Precip. Elev Updated Type
                   

Watches & Warnings

Flash Flood Watch
Issued: 3:04 AM HST Aug. 23, 2016 – National Weather Service

... Flash Flood Watch in effect through this evening...

The National Weather Service in Honolulu has issued a

* Flash Flood Watch for The Big Island.

* Through this evening

* deep tropical moisture and an unstable atmosphere will continue
to produce heavy downpours and a chance of thunderstorms over
The Big Island through this evening. With the ground already
saturated in many areas from heavy rains during the past couple
of days... there will be an elevated risk for flash flooding.

Precautionary/preparedness actions...

A Flash Flood Watch means that conditions may develop that lead
to flash flooding. Flash flooding is very dangerous.

You should monitor later forecasts and be prepared to take action
should flash flood warnings be issued.



Jacobson